Terminal Aerodrome Forecast
Issued by NWS Knoxville/Tri Cities, TN

Home | Current Version | Previous Version | Text Only | Print | Product List | Glossary On
Versions: 1 2 3 4 5 6 7 8 9 10 11 12 13 14 15 16 17 18 19 20 21 22 23 24 25 26
000
FTUS44 KMRX 030533
TAFTRI
TAF
KTRI 030533Z 0306/0406 00000KT P6SM VCSH SCT006 BKN040 BKN150
     FM030800 VRB03KT P6SM VCSH SCT012 OVC025
      TEMPO 0308/0312 4SM SHRA BR SCT008 OVC012
     FM031600 26007KT P6SM VCSH SCT020 OVC035
     FM040100 27005KT P6SM OVC040=

USA.gov is the U.S. government's official web portal to all federal, state and local government web resources and services.